Time;durP1;ratioP1;P1;durP2;ratioP2;P2;SDS_P1;SDS_P2;PMS_P1;PMS_P2;Temp;Humidity;BMP_temperature;BMP_pressure;BME280_temperature;BME280_humidity;BME280_pressure;Samples;Min_cycle;Max_cycle;Signal;HPM_P1;HPM_P2
2022/08/03 00:01:04;;;;;;;1.88;1.05;;;23.80;92.50;;;;;;5036212;27;45526;-67
2022/08/03 00:03:33;;;;;;;1.17;0.98;;;23.80;92.50;;;;;;5036966;28;45449;-67
2022/08/03 00:06:00;;;;;;;2.10;1.02;;;23.80;92.50;;;;;;5037825;28;46612;-68
2022/08/03 00:08:27;;;;;;;2.08;1.20;;;23.80;92.40;;;;;;5037283;28;45341;-66
2022/08/03 00:10:53;;;;;;;3.13;1.00;;;23.80;92.40;;;;;;5039062;27;45344;-67
2022/08/03 00:13:20;;;;;;;1.13;0.90;;;23.80;92.40;;;;;;5036699;27;45369;-68
2022/08/03 00:15:47;;;;;;;1.63;1.08;;;23.80;92.40;;;;;;5037887;27;46566;-67
2022/08/03 00:18:14;;;;;;;3.45;1.33;;;23.80;92.40;;;;;;5036294;28;45657;-68
2022/08/03 00:20:42;;;;;;;3.08;1.30;;;23.80;92.30;;;;;;5038389;27;45369;-67
2022/08/03 00:23:09;;;;;;;1.17;1.08;;;23.80;92.40;;;;;;5036681;28;45537;-67
2022/08/03 00:25:36;;;;;;;2.53;1.10;;;23.80;92.20;;;;;;5038053;27;46078;-68
2022/08/03 00:28:03;;;;;;;1.85;1.10;;;23.80;92.20;;;;;;5037913;28;45908;-67
2022/08/03 00:30:30;;;;;;;1.95;1.08;;;23.80;92.30;;;;;;5036770;28;45361;-67
2022/08/03 00:32:57;;;;;;;1.50;1.13;;;23.80;92.20;;;;;;5036942;27;45502;-68
2022/08/03 00:35:25;;;;;;;2.22;1.13;;;23.80;92.10;;;;;;5037257;27;46182;-67
2022/08/03 00:37:53;;;;;;;2.03;1.02;;;23.80;92.10;;;;;;5038169;28;45319;-68
2022/08/03 00:40:20;;;;;;;1.10;1.00;;;23.80;92.10;;;;;;5037316;27;45436;-67
2022/08/03 00:42:53;;;;;;;3.60;1.10;;;23.80;92.10;;;;;;5037952;27;45526;-68
2022/08/03 00:45:21;;;;;;;1.58;1.10;;;23.80;92.20;;;;;;5035579;28;48344;-67
2022/08/03 00:47:48;;;;;;;1.40;1.05;;;23.80;92.10;;;;;;5038094;28;45329;-67
2022/08/03 00:50:17;;;;;;;1.77;1.00;;;23.80;92.10;;;;;;5037230;27;45440;-67
2022/08/03 00:52:44;;;;;;;1.15;1.05;;;23.80;92.10;;;;;;5037486;27;45469;-67
2022/08/03 00:55:12;;;;;;;3.05;1.20;;;23.80;92.10;;;;;;5036586;27;47494;-67
2022/08/03 00:57:39;;;;;;;2.05;0.88;;;23.80;92.10;;;;;;5038129;28;45263;-66
2022/08/03 01:00:08;;;;;;;1.20;0.90;;;23.80;92.10;;;;;;5036343;27;45422;-67
2022/08/03 01:02:35;;;;;;;1.50;1.10;;;23.80;92.10;;;;;;5030556;27;45424;-67
2022/08/03 01:05:02;;;;;;;1.13;1.00;;;23.80;92.10;;;;;;5036716;28;48058;-68
2022/08/03 01:07:42;;;;;;;2.08;1.00;;;23.80;92.10;;;;;;5036783;27;45287;-67
2022/08/03 01:10:17;;;;;;;1.40;1.13;;;23.80;92.10;;;;;;5037300;27;45349;-68
2022/08/03 01:12:50;;;;;;;1.10;0.95;;;23.80;92.10;;;;;;5031152;28;45419;-67
2022/08/03 01:15:25;;;;;;;1.20;0.95;;;23.80;92.10;;;;;;5036136;27;47553;-67
2022/08/03 01:17:56;;;;;;;2.05;0.88;;;23.80;92.00;;;;;;5036988;27;45737;-67
2022/08/03 01:20:27;;;;;;;2.28;1.25;;;23.80;92.00;;;;;;5036329;28;45256;-67
2022/08/03 01:23:36;;;;;;;1.73;1.10;;;23.80;92.00;;;;;;5033740;28;45265;-67
2022/08/03 01:26:24;;;;;;;1.58;0.90;;;23.80;92.00;;;;;;5033391;28;45289;-68
2022/08/03 01:29:06;;;;;;;1.88;1.38;;;23.80;91.90;;;;;;5028218;28;45343;-67
2022/08/03 01:31:40;;;;;;;1.40;0.95;;;23.80;92.00;;;;;;5036148;28;45344;-67
2022/08/03 01:34:09;;;;;;;1.80;1.00;;;23.80;91.90;;;;;;5036498;27;45615;-67
2022/08/03 01:36:40;;;;;;;1.65;1.00;;;23.80;92.00;;;;;;5036403;27;45353;-67
2022/08/03 01:39:08;;;;;;;1.45;0.90;;;23.80;91.80;;;;;;5036077;27;45299;-67
2022/08/03 01:41:39;;;;;;;1.35;0.93;;;23.80;92.30;;;;;;5035733;27;45595;-67
2022/08/03 01:44:09;;;;;;;1.58;1.15;;;23.80;91.80;;;;;;5036901;27;45449;-67
2022/08/03 01:46:39;;;;;;;1.23;1.00;;;23.80;91.80;;;;;;5036677;27;45345;-67
2022/08/03 01:49:09;;;;;;;1.38;1.10;;;23.80;91.80;;;;;;5036205;28;45364;-67
2022/08/03 01:51:38;;;;;;;1.70;0.90;;;23.80;91.80;;;;;;5036159;27;45419;-67
2022/08/03 01:54:07;;;;;;;2.08;0.90;;;23.80;91.80;;;;;;5036369;27;45514;-67
2022/08/03 01:56:36;;;;;;;1.30;1.10;;;23.80;91.80;;;;;;5035955;27;45469;-67
2022/08/03 01:59:04;;;;;;;1.42;1.10;;;23.80;92.20;;;;;;5036363;28;45497;-67
2022/08/03 02:01:32;;;;;;;1.42;1.00;;;23.80;91.70;;;;;;5035012;27;45309;-67
2022/08/03 02:04:01;;;;;;;1.08;0.98;;;23.80;91.70;;;;;;5037263;27;45285;-67
2022/08/03 02:06:32;;;;;;;1.10;0.93;;;23.80;91.80;;;;;;5035677;28;46307;-67
2022/08/03 02:08:59;;;;;;;0.85;0.82;;;23.70;91.70;;;;;;5034243;28;45375;-66
2022/08/03 02:11:26;;;;;;;1.92;0.88;;;23.80;91.70;;;;;;5041464;28;45444;-68
2022/08/03 02:13:54;;;;;;;1.00;0.90;;;23.80;91.60;;;;;;5036393;28;45509;-67
2022/08/03 02:16:23;;;;;;;1.65;0.88;;;23.80;91.50;;;;;;5032061;28;47460;-69
2022/08/03 02:18:51;;;;;;;1.30;0.90;;;23.80;91.30;;;;;;5036531;28;45279;-67
2022/08/03 02:21:21;;;;;;;0.95;0.88;;;23.80;91.30;;;;;;5035833;28;45494;-68
2022/08/03 02:23:48;;;;;;;0.70;0.70;;;23.80;91.30;;;;;;5036481;27;45237;-67
2022/08/03 02:26:18;;;;;;;1.13;1.00;;;23.80;91.20;;;;;;5038015;27;46400;-67
2022/08/03 02:28:49;;;;;;;1.95;1.10;;;23.80;91.10;;;;;;5038610;28;45513;-67
2022/08/03 02:31:18;;;;;;;2.58;0.98;;;23.80;91.00;;;;;;5037022;28;45528;-68
2022/08/03 02:33:50;;;;;;;1.02;0.98;;;23.80;91.00;;;;;;5038924;27;45411;-68
2022/08/03 02:36:23;;;;;;;1.10;1.00;;;23.80;90.90;;;;;;5036794;27;47396;-68
2022/08/03 02:38:54;;;;;;;1.15;1.02;;;23.80;90.90;;;;;;5038887;28;45436;-67
2022/08/03 02:41:24;;;;;;;0.68;0.68;;;23.80;90.80;;;;;;5037986;27;45340;-67
2022/08/03 02:43:55;;;;;;;1.20;1.00;;;23.80;90.90;;;;;;5038691;27;45405;-67
2022/08/03 02:46:28;;;;;;;1.38;1.00;;;23.80;90.70;;;;;;5034516;27;45458;-67
2022/08/03 02:48:56;;;;;;;2.75;1.10;;;23.80;90.80;;;;;;5042006;28;45476;-67
2022/08/03 02:51:28;;;;;;;1.13;1.02;;;23.80;90.70;;;;;;5037947;28;45493;-67
2022/08/03 02:53:56;;;;;;;2.55;1.10;;;23.80;90.70;;;;;;5039646;27;45420;-67
2022/08/03 02:56:25;;;;;;;1.15;1.05;;;23.80;90.70;;;;;;5038187;27;46623;-67
2022/08/03 02:58:53;;;;;;;0.95;0.90;;;23.80;90.60;;;;;;5039322;27;45369;-67
2022/08/03 03:01:21;;;;;;;1.13;0.82;;;23.80;90.60;;;;;;5037322;28;45253;-67
2022/08/03 03:03:49;;;;;;;1.30;1.00;;;23.80;90.60;;;;;;5038683;28;45508;-67
2022/08/03 03:06:18;;;;;;;1.00;0.90;;;23.80;90.60;;;;;;5038311;27;47019;-67
2022/08/03 03:08:47;;;;;;;1.45;0.90;;;23.80;90.50;;;;;;5038822;27;45360;-67
2022/08/03 03:11:17;;;;;;;1.75;0.90;;;23.80;90.50;;;;;;5036779;27;45488;-68
2022/08/03 03:13:46;;;;;;;1.77;1.02;;;23.80;90.50;;;;;;5039377;27;45415;-67
2022/08/03 03:16:14;;;;;;;1.20;0.90;;;23.80;90.60;;;;;;5036461;27;47724;-67
2022/08/03 03:18:44;;;;;;;1.00;0.80;;;23.80;90.50;;;;;;5028941;28;45217;-68
2022/08/03 03:21:12;;;;;;;1.83;0.80;;;23.80;90.50;;;;;;5047293;28;45372;-66
2022/08/03 03:23:41;;;;;;;1.40;1.00;;;23.80;90.50;;;;;;5038676;28;45589;-66
2022/08/03 03:26:10;;;;;;;1.35;1.02;;;23.80;90.50;;;;;;5037345;28;46393;-67
2022/08/03 03:28:38;;;;;;;1.25;0.80;;;23.80;90.40;;;;;;5038161;28;45290;-67
2022/08/03 03:31:05;;;;;;;1.45;1.00;;;23.80;90.40;;;;;;5037363;27;45506;-68
2022/08/03 03:33:33;;;;;;;2.28;0.90;;;23.80;90.40;;;;;;5037749;27;45583;-67
2022/08/03 03:36:00;;;;;;;1.25;1.00;;;23.80;90.40;;;;;;5038188;28;48132;-67
2022/08/03 03:38:27;;;;;;;1.08;0.88;;;23.80;90.40;;;;;;5038307;27;45267;-67
2022/08/03 03:40:55;;;;;;;0.98;0.88;;;23.80;90.40;;;;;;5039018;27;45484;-67
2022/08/03 03:43:24;;;;;;;1.38;0.73;;;23.70;90.30;;;;;;5036069;27;45656;-67
2022/08/03 03:45:52;;;;;;;1.77;1.00;;;23.80;90.40;;;;;;5037835;28;46296;-68
2022/08/03 03:48:19;;;;;;;1.00;0.90;;;23.80;90.50;;;;;;5037391;27;45310;-67
2022/08/03 03:50:46;;;;;;;1.33;0.85;;;23.80;90.40;;;;;;5035056;28;45318;-67
2022/08/03 03:53:13;;;;;;;1.40;0.98;;;23.70;90.30;;;;;;5034038;28;45422;-67
2022/08/03 03:55:41;;;;;;;1.00;0.90;;;23.70;90.30;;;;;;5037937;28;47179;-67
2022/08/03 03:58:08;;;;;;;1.00;0.90;;;23.70;90.60;;;;;;5037353;28;45259;-67
2022/08/03 04:00:36;;;;;;;1.50;1.00;;;23.70;90.20;;;;;;5039727;27;45332;-67
2022/08/03 04:03:03;;;;;;;1.38;0.98;;;23.70;90.20;;;;;;5045178;27;45597;-68
2022/08/03 04:11:07;;;;;;;1.63;1.00;;;23.80;90.30;;;;;;5031845;27;45417;-66
2022/08/03 04:13:37;;;;;;;1.13;0.85;;;23.70;90.30;;;;;;5038482;28;45637;-67
2022/08/03 04:16:10;;;;;;;1.50;1.02;;;23.70;90.20;;;;;;5033974;27;47555;-67
2022/08/03 04:18:40;;;;;;;1.60;0.90;;;23.70;90.20;;;;;;5037189;27;45418;-67
2022/08/03 04:21:10;;;;;;;0.93;0.90;;;23.70;90.20;;;;;;5033128;27;45543;-67
2022/08/03 04:23:43;;;;;;;1.33;1.20;;;23.70;90.10;;;;;;5037178;27;45532;-67
2022/08/03 04:26:13;;;;;;;1.30;0.95;;;23.70;90.10;;;;;;5034439;28;46062;-66
2022/08/03 04:28:41;;;;;;;1.35;1.10;;;23.80;90.10;;;;;;5030239;28;45471;-67
2022/08/03 04:31:10;;;;;;;1.98;1.17;;;23.80;90.00;;;;;;5037662;27;45525;-67
2022/08/03 04:33:38;;;;;;;1.42;1.20;;;23.80;89.10;;;;;;5032622;28;45561;-67
2022/08/03 04:36:08;;;;;;;1.95;1.20;;;23.80;89.20;;;;;;5037005;27;47543;-66
2022/08/03 04:38:39;;;;;;;1.20;0.95;;;23.80;88.80;;;;;;5038096;27;45300;-67
2022/08/03 04:41:08;;;;;;;2.03;1.38;;;23.80;88.70;;;;;;5035985;27;45518;-67
2022/08/03 04:43:38;;;;;;;1.50;1.30;;;23.80;88.50;;;;;;5026188;28;45543;-68
2022/08/03 04:46:07;;;;;;;2.43;1.20;;;23.80;88.50;;;;;;5027658;28;46505;-67
2022/08/03 04:48:35;;;;;;;1.70;1.20;;;23.80;88.70;;;;;;5034888;27;45550;-70
2022/08/03 04:51:03;;;;;;;1.30;1.20;;;23.80;88.90;;;;;;5039653;27;45412;-69
2022/08/03 04:53:30;;;;;;;2.30;1.15;;;23.80;89.20;;;;;;5037308;27;45570;-67
2022/08/03 04:56:04;;;;;;;1.30;1.20;;;23.80;89.40;;;;;;5043887;27;45422;-67
2022/08/03 04:58:31;;;;;;;1.65;1.10;;;23.80;89.40;;;;;;5037899;27;45353;-67
2022/08/03 05:00:57;;;;;;;1.50;1.10;;;23.80;89.50;;;;;;5039845;27;45818;-67
2022/08/03 05:03:24;;;;;;;1.45;1.10;;;23.80;89.70;;;;;;5031035;28;45338;-67
2022/08/03 05:05:53;;;;;;;1.17;1.00;;;23.70;89.70;;;;;;5040163;27;46576;-67
2022/08/03 05:08:20;;;;;;;1.42;1.00;;;23.80;90.10;;;;;;5038470;28;45448;-68
2022/08/03 05:10:47;;;;;;;2.05;1.25;;;23.80;90.20;;;;;;5037707;28;45218;-66
2022/08/03 05:13:14;;;;;;;1.58;1.10;;;23.70;90.20;;;;;;5038766;28;45307;-67
2022/08/03 05:15:41;;;;;;;1.73;1.35;;;23.80;90.40;;;;;;5038192;28;47703;-67
2022/08/03 05:18:08;;;;;;;0.80;0.80;;;23.80;90.40;;;;;;5038100;28;45291;-67
2022/08/03 05:20:35;;;;;;;1.80;1.13;;;23.80;90.50;;;;;;5039350;28;45281;-67
2022/08/03 05:23:03;;;;;;;1.77;0.95;;;23.80;90.50;;;;;;5038663;28;45424;-68
2022/08/03 05:25:30;;;;;;;1.27;1.08;;;23.80;90.50;;;;;;5038450;28;45538;-67
2022/08/03 05:27:57;;;;;;;1.85;1.20;;;23.80;90.60;;;;;;5038975;28;45406;-67
2022/08/03 05:30:23;;;;;;;1.65;1.10;;;23.80;90.60;;;;;;5038948;28;45368;-67
2022/08/03 05:32:50;;;;;;;1.52;0.98;;;23.80;90.60;;;;;;5038469;28;45271;-67
2022/08/03 05:35:17;;;;;;;1.25;1.00;;;23.80;90.60;;;;;;5038193;28;48600;-69
2022/08/03 05:37:44;;;;;;;1.38;1.02;;;23.80;90.60;;;;;;5039391;27;45390;-67
2022/08/03 05:40:13;;;;;;;1.40;1.20;;;23.80;90.60;;;;;;5039017;28;45290;-67
2022/08/03 05:42:40;;;;;;;1.58;1.30;;;23.80;90.60;;;;;;5022115;27;45274;-67
2022/08/03 05:45:14;;;;;;;1.35;1.00;;;23.80;90.60;;;;;;5024513;28;46248;-66
2022/08/03 05:47:43;;;;;;;1.23;0.90;;;23.80;90.60;;;;;;5039032;27;45325;-67
2022/08/03 05:50:10;;;;;;;1.48;1.10;;;23.90;90.60;;;;;;5037866;27;45357;-67
2022/08/03 05:52:37;;;;;;;1.50;1.00;;;23.90;90.70;;;;;;5038154;27;45459;-67
2022/08/03 05:55:05;;;;;;;1.58;1.30;;;23.90;90.70;;;;;;5038329;27;47328;-67
2022/08/03 05:57:33;;;;;;;1.75;1.00;;;23.90;90.70;;;;;;5039122;27;46723;-67
2022/08/03 06:00:00;;;;;;;1.50;1.20;;;23.90;90.70;;;;;;5040881;27;45400;-68
2022/08/03 06:02:27;;;;;;;1.23;1.10;;;23.90;90.70;;;;;;5041341;28;45316;-67
2022/08/03 06:04:54;;;;;;;1.23;1.13;;;23.90;90.80;;;;;;5041105;28;47106;-68
2022/08/03 06:07:21;;;;;;;1.83;1.10;;;23.90;90.80;;;;;;5041966;28;45346;-67
2022/08/03 06:09:48;;;;;;;0.98;0.85;;;23.90;90.90;;;;;;5038705;28;45306;-67
2022/08/03 06:12:15;;;;;;;3.03;1.17;;;23.90;90.90;;;;;;5039892;28;45468;-68
2022/08/03 06:14:44;;;;;;;2.08;1.17;;;23.90;90.90;;;;;;5041357;27;45360;-67
2022/08/03 06:17:11;;;;;;;1.17;1.00;;;23.90;90.90;;;;;;5040587;27;45283;-68
2022/08/03 06:19:37;;;;;;;1.33;0.90;;;23.90;91.00;;;;;;5040104;28;45282;-66
2022/08/03 06:22:04;;;;;;;1.95;1.20;;;23.90;91.00;;;;;;5039061;28;45354;-69
2022/08/03 06:24:31;;;;;;;1.38;1.17;;;23.90;91.10;;;;;;5039771;28;48738;-67
2022/08/03 06:26:58;;;;;;;2.97;1.30;;;23.90;91.00;;;;;;5040294;27;45482;-67
2022/08/03 06:29:25;;;;;;;1.65;1.20;;;23.90;91.00;;;;;;5041797;28;45238;-66
2022/08/03 06:31:53;;;;;;;1.67;1.20;;;23.90;91.00;;;;;;5041111;28;45568;-66
2022/08/03 06:34:20;;;;;;;2.92;1.30;;;23.90;91.00;;;;;;5041299;28;47249;-67
2022/08/03 06:36:49;;;;;;;1.35;1.10;;;23.90;91.00;;;;;;5039777;28;45467;-67
2022/08/03 06:39:16;;;;;;;1.42;1.13;;;23.90;91.00;;;;;;5040474;27;45205;-68
2022/08/03 06:41:43;;;;;;;2.15;1.10;;;23.90;91.00;;;;;;5032977;27;45437;-67
2022/08/03 06:44:10;;;;;;;2.08;1.33;;;23.90;90.90;;;;;;5020770;28;45301;-67
2022/08/03 06:46:36;;;;;;;1.27;1.08;;;23.90;90.90;;;;;;5021172;28;45406;-67
2022/08/03 06:49:04;;;;;;;1.23;1.08;;;23.90;90.90;;;;;;5021473;28;45395;-67
2022/08/03 06:51:31;;;;;;;1.65;1.15;;;23.90;90.90;;;;;;5021631;28;45372;-67
2022/08/03 06:53:58;;;;;;;1.90;1.35;;;23.90;90.90;;;;;;5020477;28;48791;-67
2022/08/03 06:56:25;;;;;;;2.08;1.05;;;24.00;91.00;;;;;;5021324;28;45431;-68
2022/08/03 06:58:51;;;;;;;1.45;1.10;;;24.00;90.90;;;;;;5021539;28;45358;-67
2022/08/03 07:01:18;;;;;;;1.60;1.02;;;24.00;91.00;;;;;;5021377;28;45346;-67
2022/08/03 07:03:45;;;;;;;1.55;1.08;;;24.00;91.00;;;;;;5021028;28;47067;-67
2022/08/03 07:06:13;;;;;;;1.35;1.02;;;24.00;91.00;;;;;;5036585;28;45387;-67
2022/08/03 07:08:40;;;;;;;1.60;1.00;;;24.00;91.00;;;;;;5040841;27;45289;-67
2022/08/03 07:11:07;;;;;;;1.20;1.10;;;24.00;91.00;;;;;;5040581;28;45393;-67
2022/08/03 07:13:34;;;;;;;2.30;1.10;;;24.00;91.00;;;;;;5040267;28;45398;-67
2022/08/03 07:16:00;;;;;;;1.88;1.20;;;24.00;91.00;;;;;;5040402;28;45412;-67
2022/08/03 07:18:27;;;;;;;3.10;1.00;;;24.00;91.00;;;;;;5041334;28;45294;-67
2022/08/03 07:20:54;;;;;;;1.45;1.20;;;24.00;91.10;;;;;;5040602;28;45302;-67
2022/08/03 07:23:22;;;;;;;1.30;1.13;;;24.00;91.00;;;;;;5039798;28;48100;-67
2022/08/03 07:25:49;;;;;;;1.73;1.13;;;24.00;91.10;;;;;;5040830;28;45247;-67
2022/08/03 07:28:16;;;;;;;2.78;1.20;;;24.00;91.10;;;;;;5041284;28;45418;-67
2022/08/03 07:30:43;;;;;;;1.05;0.95;;;24.00;91.10;;;;;;5040840;28;45252;-67
2022/08/03 07:33:09;;;;;;;1.08;0.93;;;24.00;91.10;;;;;;5039687;28;47525;-67
2022/08/03 07:35:36;;;;;;;2.03;0.90;;;23.90;91.10;;;;;;5040325;27;45359;-67
2022/08/03 07:38:03;;;;;;;1.63;1.08;;;24.00;91.10;;;;;;5039183;28;45518;-66
2022/08/03 07:40:31;;;;;;;3.17;1.15;;;23.90;91.10;;;;;;5040714;28;45248;-68
2022/08/03 07:42:58;;;;;;;1.55;0.98;;;24.00;91.20;;;;;;5021318;28;48129;-68
2022/08/03 07:45:25;;;;;;;1.50;0.88;;;24.00;91.20;;;;;;5039959;27;45285;-67
2022/08/03 07:47:52;;;;;;;1.13;1.00;;;24.00;91.20;;;;;;5041127;27;45412;-67
2022/08/03 07:50:19;;;;;;;2.70;1.20;;;23.90;91.20;;;;;;5039603;28;45361;-66
2022/08/03 07:52:50;;;;;;;1.75;1.10;;;23.90;91.30;;;;;;5038788;28;46629;-66
2022/08/03 07:55:17;;;;;;;1.23;1.00;;;23.90;91.30;;;;;;5038858;27;45407;-67
2022/08/03 07:57:46;;;;;;;1.83;1.10;;;23.90;91.30;;;;;;5035825;27;45334;-67
2022/08/03 08:00:16;;;;;;;1.77;1.30;;;23.90;91.30;;;;;;5020359;28;45253;-67
2022/08/03 08:02:43;;;;;;;0.75;0.70;;;23.90;91.30;;;;;;5020187;28;46727;-68
2022/08/03 08:05:11;;;;;;;1.67;1.02;;;23.90;91.20;;;;;;5018925;28;45313;-67
2022/08/03 08:07:38;;;;;;;1.55;1.13;;;23.90;91.20;;;;;;5028289;28;45433;-67
2022/08/03 08:10:06;;;;;;;2.28;1.00;;;23.90;91.20;;;;;;5039233;28;45568;-67
2022/08/03 08:12:33;;;;;;;1.33;1.00;;;23.90;91.20;;;;;;5039219;28;45422;-67
2022/08/03 08:15:02;;;;;;;1.70;1.10;;;23.90;91.20;;;;;;5028495;28;45278;-67
2022/08/03 08:17:29;;;;;;;0.95;0.77;;;23.90;91.30;;;;;;5027994;28;45297;-67
2022/08/03 08:19:55;;;;;;;2.78;1.05;;;23.90;91.20;;;;;;5037870;28;45325;-67
2022/08/03 08:22:22;;;;;;;0.90;0.90;;;23.90;91.20;;;;;;5039924;28;48155;-66
2022/08/03 08:24:49;;;;;;;2.50;1.17;;;23.90;91.20;;;;;;5041396;28;45302;-67
2022/08/03 08:27:16;;;;;;;1.73;1.08;;;23.90;91.30;;;;;;5029626;28;45375;-67
2022/08/03 08:29:43;;;;;;;0.98;0.80;;;23.90;91.30;;;;;;5020213;28;45550;-67
2022/08/03 08:32:13;;;;;;;1.77;1.10;;;23.90;91.30;;;;;;5039702;27;45443;-66
2022/08/03 08:34:40;;;;;;;1.30;1.10;;;23.90;91.30;;;;;;5039032;28;45366;-66
2022/08/03 08:37:06;;;;;;;1.75;1.00;;;23.90;91.30;;;;;;5040051;28;45507;-66
2022/08/03 08:39:33;;;;;;;1.75;1.10;;;23.90;91.30;;;;;;5039975;28;45540;-67
2022/08/03 08:42:00;;;;;;;2.00;1.10;;;24.00;91.30;;;;;;5039625;28;47810;-68
2022/08/03 08:44:27;;;;;;;1.63;0.80;;;23.90;91.20;;;;;;5021129;28;45362;-66
2022/08/03 08:46:57;;;;;;;1.40;1.00;;;23.90;91.20;;;;;;5018582;27;45352;-67
2022/08/03 08:49:27;;;;;;;1.63;0.93;;;23.90;91.20;;;;;;5020380;28;45246;-67
2022/08/03 08:51:56;;;;;;;1.30;1.02;;;23.90;91.10;;;;;;5034378;28;45557;-67
2022/08/03 08:54:23;;;;;;;1.67;1.00;;;24.00;91.10;;;;;;5037256;27;45988;-67
2022/08/03 08:56:51;;;;;;;1.48;1.05;;;23.90;91.10;;;;;;5038658;27;45717;-66
2022/08/03 08:59:19;;;;;;;2.40;1.10;;;23.90;91.00;;;;;;5035347;27;45571;-66
2022/08/03 09:01:46;;;;;;;4.88;1.77;;;23.90;90.90;;;;;;5039632;27;47406;-66
2022/08/03 09:04:13;;;;;;;4.20;1.02;;;23.90;91.10;;;;;;5038944;28;45498;-66
2022/08/03 09:06:41;;;;;;;4.63;1.33;;;24.00;91.10;;;;;;5038587;28;45455;-66
2022/08/03 09:09:08;;;;;;;5.63;1.30;;;23.90;90.90;;;;;;5039872;28;45380;-66
2022/08/03 09:11:35;;;;;;;2.83;1.15;;;23.90;90.90;;;;;;5039832;27;45479;-67
2022/08/03 09:14:02;;;;;;;2.90;1.45;;;23.90;90.80;;;;;;5040262;28;45222;-66
2022/08/03 09:16:29;;;;;;;1.60;0.70;;;23.90;90.80;;;;;;5039134;28;45229;-66
2022/08/03 09:19:11;;;;;;;2.85;0.90;;;23.90;90.80;;;;;;5035142;28;45316;-67
2022/08/03 09:21:37;;;;;;;1.58;0.93;;;24.00;90.90;;;;;;5019312;28;48094;-66
2022/08/03 09:24:06;;;;;;;1.48;0.80;;;24.00;90.90;;;;;;5022414;28;45266;-66
2022/08/03 09:26:35;;;;;;;1.40;1.02;;;24.00;90.80;;;;;;5022933;28;46159;-66
2022/08/03 09:29:04;;;;;;;2.08;0.80;;;24.00;90.80;;;;;;5034223;27;45455;-66
2022/08/03 09:31:32;;;;;;;1.90;0.90;;;24.00;90.80;;;;;;5042295;27;47544;-66
2022/08/03 09:34:29;;;;;;;1.55;0.82;;;24.00;90.80;;;;;;5035707;28;45521;-67
2022/08/03 09:36:56;;;;;;;3.08;1.00;;;24.00;90.80;;;;;;5039687;28;45256;-67
2022/08/03 09:39:30;;;;;;;3.42;1.00;;;24.00;90.70;;;;;;5030393;27;45266;-66
2022/08/03 09:42:07;;;;;;;1.15;0.80;;;24.00;90.70;;;;;;5023015;28;47286;-69
2022/08/03 09:44:35;;;;;;;1.60;1.30;;;24.00;90.70;;;;;;5019911;28;45283;-67
2022/08/03 09:47:02;;;;;;;1.30;0.88;;;24.00;90.70;;;;;;5033376;28;45320;-67
2022/08/03 09:49:29;;;;;;;1.20;0.90;;;24.10;90.70;;;;;;5042273;28;45325;-67
2022/08/03 09:51:56;;;;;;;1.17;0.98;;;24.10;90.60;;;;;;5041720;28;47695;-67
2022/08/03 09:54:29;;;;;;;1.52;0.80;;;24.10;90.60;;;;;;5036117;28;45850;-67
2022/08/03 09:56:56;;;;;;;3.38;0.95;;;24.10;90.60;;;;;;5037650;28;45302;-66
2022/08/03 09:59:25;;;;;;;1.67;1.00;;;24.10;90.50;;;;;;5033777;28;45436;-68
2022/08/03 10:01:51;;;;;;;1.70;0.80;;;24.10;90.40;;;;;;5041484;28;47138;-67
2022/08/03 10:04:18;;;;;;;1.02;0.93;;;24.10;90.40;;;;;;5039920;28;45400;-67
2022/08/03 10:07:00;;;;;;;1.50;0.90;;;24.10;90.50;;;;;;5040875;28;45364;-66
2022/08/03 10:09:28;;;;;;;0.98;0.70;;;24.10;90.50;;;;;;5039847;28;45353;-67
2022/08/03 10:11:56;;;;;;;1.85;1.00;;;24.10;90.50;;;;;;5031086;28;45545;-67
2022/08/03 10:14:25;;;;;;;1.92;1.00;;;24.10;90.40;;;;;;5040863;28;45871;-66
2022/08/03 10:16:52;;;;;;;2.10;1.00;;;24.20;90.50;;;;;;5043089;28;45489;-67
2022/08/03 10:19:19;;;;;;;2.00;1.00;;;24.10;90.40;;;;;;5041493;28;45547;-67
2022/08/03 10:21:49;;;;;;;2.15;1.20;;;24.20;90.30;;;;;;5041786;28;46420;-66
2022/08/03 10:24:24;;;;;;;0.98;0.90;;;24.10;90.30;;;;;;5032816;28;45535;-66
2022/08/03 10:26:56;;;;;;;3.45;1.10;;;24.20;90.30;;;;;;5021580;28;45414;-67
2022/08/03 10:29:28;;;;;;;1.38;0.90;;;24.10;90.20;;;;;;5037087;28;45634;-66
2022/08/03 10:31:58;;;;;;;1.25;0.90;;;24.20;90.20;;;;;;5041180;28;47562;-66
2022/08/03 10:34:27;;;;;;;3.13;1.02;;;24.20;90.10;;;;;;5040796;28;45429;-66
2022/08/03 10:36:58;;;;;;;1.70;0.95;;;24.20;90.10;;;;;;5022090;28;45349;-66
2022/08/03 10:39:29;;;;;;;2.80;1.00;;;24.20;90.10;;;;;;5021806;28;45245;-66
2022/08/03 10:41:58;;;;;;;1.35;0.80;;;24.20;90.10;;;;;;5031780;28;45455;-67
2022/08/03 10:44:29;;;;;;;1.30;1.00;;;24.20;90.10;;;;;;5037720;28;45303;-67
2022/08/03 10:46:57;;;;;;;1.10;1.00;;;24.20;90.10;;;;;;5028576;28;45363;-66
2022/08/03 10:49:25;;;;;;;1.88;0.90;;;24.20;90.20;;;;;;5025446;28;45558;-66
2022/08/03 10:51:52;;;;;;;1.33;0.82;;;24.20;90.10;;;;;;5041336;28;45512;-66
2022/08/03 10:57:33;;;;;;;2.45;0.90;;;24.20;90.10;;;;;;5040599;27;45399;-66
2022/08/03 10:57:47;;;;;;;2.15;1.00;;;24.20;90.00;;;;;;5021622;28;45320;-67
2022/08/03 11:00:15;;;;;;;1.27;0.95;;;24.20;89.90;;;;;;5033895;27;45323;-66
2022/08/03 11:03:10;;;;;;;0.70;0.70;;;24.20;89.80;;;;;;5021980;28;46715;-67
2022/08/03 11:05:39;;;;;;;1.67;0.95;;;24.20;89.70;;;;;;5035744;28;45514;-67
2022/08/03 11:08:29;;;;;;;0.77;0.63;;;24.20;89.50;;;;;;5021856;28;45486;-66
2022/08/03 11:11:02;;;;;;;1.20;0.90;;;24.20;89.30;;;;;;5022035;28;45264;-67
2022/08/03 11:13:32;;;;;;;1.27;0.98;;;24.20;89.40;;;;;;5035450;28;45271;-66
2022/08/03 11:16:02;;;;;;;3.63;0.82;;;24.20;89.60;;;;;;5039972;28;45707;-66
2022/08/03 11:18:29;;;;;;;1.35;0.98;;;24.20;89.50;;;;;;5040900;28;45343;-66
2022/08/03 11:20:57;;;;;;;3.58;0.93;;;24.20;89.40;;;;;;5040533;27;45394;-66
2022/08/03 11:23:43;;;;;;;0.98;0.85;;;24.20;89.20;;;;;;5040499;28;46464;-66
2022/08/03 11:26:11;;;;;;;1.70;1.00;;;24.20;89.10;;;;;;5041786;28;45339;-66
2022/08/03 11:28:40;;;;;;;2.22;0.90;;;24.20;88.90;;;;;;5041013;28;45441;-67
2022/08/03 11:31:40;;;;;;;1.73;0.80;;;24.30;88.70;;;;;;5040949;27;45570;-66
2022/08/03 11:34:08;;;;;;;1.42;1.13;;;24.30;88.60;;;;;;5037759;28;45480;-67
2022/08/03 11:37:08;;;;;;;1.15;0.82;;;24.30;88.40;;;;;;5040101;28;45420;-67
2022/08/03 11:39:39;;;;;;;1.13;0.90;;;24.30;88.20;;;;;;5040669;28;45323;-66
2022/08/03 11:42:44;;;;;;;1.30;0.90;;;24.30;88.10;;;;;;5029121;27;45553;-66
2022/08/03 11:45:13;;;;;;;1.17;0.80;;;24.30;88.00;;;;;;5019358;28;46385;-66
2022/08/03 11:47:42;;;;;;;3.30;0.90;;;24.30;88.00;;;;;;5020898;28;45357;-66
2022/08/03 11:50:09;;;;;;;4.35;1.40;;;24.30;87.80;;;;;;5020621;28;45307;-66
2022/08/03 11:52:39;;;;;;;2.17;1.10;;;24.30;88.10;;;;;;5019917;28;45368;-66
2022/08/03 11:55:11;;;;;;;3.25;1.33;;;24.30;88.40;;;;;;5020310;28;45367;-66
2022/08/03 11:57:39;;;;;;;2.33;1.00;;;24.40;88.30;;;;;;5016968;28;45241;-67
2022/08/03 12:00:25;;;;;;;1.52;0.95;;;24.40;88.00;;;;;;5020839;28;45331;-66
2022/08/03 12:03:00;;;;;;;1.95;0.90;;;24.40;87.90;;;;;;5020051;28;45311;-66
2022/08/03 12:05:35;;;;;;;2.42;1.00;;;24.40;87.70;;;;;;5020311;28;48157;-66
2022/08/03 12:08:01;;;;;;;2.10;1.23;;;24.30;87.40;;;;;;5020593;28;45419;-67
2022/08/03 12:10:29;;;;;;;1.42;0.90;;;24.30;87.40;;;;;;5020222;28;45207;-66
2022/08/03 12:12:57;;;;;;;1.15;0.82;;;24.30;87.70;;;;;;5019330;28;45322;-67
2022/08/03 12:15:30;;;;;;;1.40;0.98;;;24.30;87.70;;;;;;5019036;28;47351;-67
2022/08/03 12:17:57;;;;;;;1.90;0.82;;;24.30;87.80;;;;;;5020602;28;45214;-66
2022/08/03 12:20:26;;;;;;;1.95;0.95;;;24.30;88.00;;;;;;5019977;28;45397;-67
2022/08/03 12:22:53;;;;;;;1.85;0.90;;;24.30;87.90;;;;;;5032428;28;45512;-67
2022/08/03 12:25:24;;;;;;;1.77;0.85;;;24.20;88.10;;;;;;5039999;28;47284;-67
2022/08/03 12:27:51;;;;;;;1.58;0.77;;;24.20;87.90;;;;;;5031344;28;45671;-66
2022/08/03 12:30:19;;;;;;;1.63;1.10;;;24.20;87.70;;;;;;5040652;28;45609;-66
2022/08/03 12:32:47;;;;;;;1.23;0.70;;;24.20;87.50;;;;;;5054125;28;45431;-67
2022/08/03 12:35:23;;;;;;;2.95;0.90;;;24.20;87.70;;;;;;5059934;28;46588;-66
2022/08/03 12:37:50;;;;;;;1.33;0.80;;;24.20;87.50;;;;;;5059764;28;45377;-66
2022/08/03 12:40:25;;;;;;;0.93;0.77;;;24.20;88.00;;;;;;5060124;28;45353;-67
2022/08/03 12:42:52;;;;;;;1.60;1.05;;;24.20;88.10;;;;;;5041561;28;45540;-67
2022/08/03 12:45:21;;;;;;;2.00;1.10;;;24.20;87.80;;;;;;5038481;27;45353;-68
2022/08/03 12:47:54;;;;;;;1.52;0.90;;;24.20;87.60;;;;;;5040218;28;45364;-67
2022/08/03 12:50:25;;;;;;;2.25;1.00;;;24.20;87.70;;;;;;5039619;28;45319;-67
2022/08/03 12:52:52;;;;;;;1.85;0.77;;;24.20;88.00;;;;;;5039616;28;45363;-67
2022/08/03 12:55:20;;;;;;;0.82;0.65;;;24.20;88.00;;;;;;5039652;28;46944;-67
2022/08/03 12:57:48;;;;;;;2.15;0.98;;;24.20;87.80;;;;;;5039586;28;45855;-67
2022/08/03 13:00:17;;;;;;;1.67;0.90;;;24.20;87.80;;;;;;5039740;28;45368;-67
2022/08/03 13:02:44;;;;;;;0.95;0.70;;;24.30;90.00;;;;;;5039345;28;45444;-66
2022/08/03 13:05:13;;;;;;;2.42;0.90;;;24.30;90.50;;;;;;5039469;28;45373;-66